Robijn — PBEJ — position and weather

sailwx.info

Track history (hours):
 
Tides and Currents Weather Stations Pressure Air Temp Water Temp Dewpoint Dewpoint Depression Visibility Wind Speed Wind Dir Waves Ship Positions

Robijn

Last reported at 2014-Nov-25 23:23 UTC. Time now 2014-Nov-27 00:18 UTC.
Position N 50°33' E 000°02'.

Length 90 m; draft 5.4 m.

Type: Cargo ship. MMSI: 245909000.

Date/timePositionNaut miles runAvg speedWind from/ knotsBaromVisibWave heightAir tempDewpointWater temp
2014-Nov-25 23:23N 50°33' E 000°02'7 8.7
2014-Nov-25 22:33N 50°35' E 000°13'9 8.9
2014-Nov-25 21:33N 50°37' E 000°26'1010.2
2014-Nov-25 20:33N 50°42' E 000°41'1312.6
2014-Nov-25 19:33N 50°48' E 000°57'1312.9
2014-Nov-25 18:32N 50°57' E 001°13'1212.3
2014-Nov-25 17:34N 51°05' E 001°28'1010.2
2014-Nov-25 16:33N 51°12' E 001°40'9 8.9
2014-Nov-25 15:33N 51°19' E 001°48'9 8.8
2014-Nov-25 14:33N 51°27' E 001°55'10 9.8
2014-Nov-25 13:33N 51°34' E 002°06'1110.5
2014-Nov-25 12:33N 51°42' E 002°17'6712.2
2014-Nov-25 07:04N 52°33' E 003°26'2010.0
2014-Nov-25 05:04N 52°49' E 003°48'4110.3
2014-Nov-25 01:06N 53°20' E 004°33'611.5
2014-Nov-25 00:32N 53°25' E 004°37'1110.7
2014-Nov-24 23:33N 53°31' E 004°51'1010.4
2014-Nov-24 22:33N 53°35' E 005°08'10 9.6
2014-Nov-24 21:33N 53°38' E 005°23'9 8.8
2014-Nov-24 20:34N 53°41' E 005°37'9 8.5
2014-Nov-24 19:33N 53°43' E 005°51'61 9.4
2014-Nov-24 13:07N 53°59' E 007°30'5 8.9
2014-Nov-24 12:33N 54°01' E 007°38'8 8.4
2014-Nov-24 11:33N 54°02' E 007°53'8 8.4
2014-Nov-24 10:33N 54°01' E 008°07'8 8.3
2014-Nov-24 09:33N 53°60' E 008°21'8 8.2
2014-Nov-24 08:34N 53°58' E 008°34'1211.5
2014-Nov-24 07:34N 53°51' E 008°49'1211.9
2014-Nov-24 06:33N 53°54' E 009°09'2 2.4
2014-Nov-24 05:33N 53°55' E 009°12'7 7.1
2014-Nov-24 04:33N 54°01' E 009°18'7 7.2
2014-Nov-24 03:33N 54°08' E 009°21'9 8.5
2014-Nov-24 02:31N 54°12' E 009°34'7 7.6
2014-Nov-24 01:33N 54°18' E 009°42'7 7.2
2014-Nov-24 00:33N 54°21' E 009°53'8 7.7
2014-Nov-23 23:33N 54°22' E 010°06'2 2.3
2014-Nov-23 22:33N 54°22' E 010°10'4 3.9
2014-Nov-23 21:33N 54°26' E 010°13'1010.3
2014-Nov-23 20:33N 54°32' E 010°27'3711.2
2014-Nov-23 17:12N 54°31' E 011°31'711.4
2014-Nov-23 16:33N 54°28' E 011°43'1111.5
2014-Nov-23 15:33N 54°27' E 012°02'5110.3
2014-Nov-23 10:33N 54°55' E 013°17'1310.1
2014-Nov-23 09:19N 54°59' E 013°37'22 9.8
2014-Nov-23 07:04N 55°10' E 014°11'5 9.9
2014-Nov-23 06:33N 55°14' E 014°17'11 9.9
2014-Nov-23 05:26N 55°23' E 014°28'910.1
2014-Nov-23 04:30N 55°29' E 014°41'1010.2
2014-Nov-23 03:33N 55°34' E 014°55'4410.6
2014-Nov-22 23:21N 55°56' E 016°04'910.8
2014-Nov-22 22:33N 56°00' E 016°17'33510.5
2014-Nov-21 14:32N 59°37' E 024°17'1010.3
2014-Nov-21 13:33N 59°41' E 024°35'1110.3
2014-Nov-21 12:31N 59°44' E 024°56'51 4.6
2014-Nov-21 01:31N 59°32' E 026°33'0 0.0
2014-Nov-21 00:32N 59°32' E 026°33'0 0.0
2014-Nov-20 23:28N 59°32' E 026°33'0 0.0
2014-Nov-20 22:24N 59°32' E 026°33'0 0.0
2014-Nov-20 21:16N 59°32' E 026°33'0 0.0
2014-Nov-20 20:33N 59°32' E 026°33'0 0.0
2014-Nov-20 19:25N 59°32' E 026°33'0 0.0
2014-Nov-20 18:32N 59°32' E 026°33'0 0.0
2014-Nov-20 17:24N 59°32' E 026°33'0 0.0
2014-Nov-20 16:32N 59°32' E 026°33'0 0.0
2014-Nov-20 15:31N 59°32' E 026°33'0 0.0
2014-Nov-20 12:30N 59°32' E 026°33'0 0.0
2014-Nov-20 11:33N 59°32' E 026°33'0 0.0
2014-Nov-20 10:33N 59°32' E 026°33'2 2.0
2014-Nov-20 09:26N 59°34' E 026°31'2 1.7
2014-Nov-20 08:34N 59°35' E 026°29'0 0.0
2014-Nov-20 07:29N 59°35' E 026°29'5 2.1
2014-Nov-20 05:04N 59°40' E 026°27'4 6.9
2014-Nov-20 04:33N 59°42' E 026°22'9 6.9
2014-Nov-20 03:19N 59°47' E 026°08'6 7.0
2014-Nov-20 02:26N 59°50' E 025°58'6 6.2
2014-Nov-20 01:25N 59°51' E 025°45'8 6.8
2014-Nov-20 00:13N 59°50' E 025°29'6 7.0
2014-Nov-19 23:22N 59°48' E 025°17'15 6.5
2014-Nov-19 21:03N 59°45' E 024°48'3 6.5
2014-Nov-19 20:33N 59°45' E 024°42'7 7.4
2014-Nov-19 19:33N 59°43' E 024°27'16 7.4
2014-Nov-19 17:25N 59°38' E 023°58'7 7.5
2014-Nov-19 16:31N 59°36' E 023°45'7 7.6
2014-Nov-19 15:33N 59°33' E 023°32'  
2014-Nov-16 05:26N 57°16' E 017°40'7 8.6
2014-Nov-16 04:33N 57°09' E 017°36'  
Track history (hours):
 
Tides and Currents Weather Stations Pressure Air Temp Water Temp Dewpoint Dewpoint Depression Visibility Wind Speed Wind Dir Waves Ship Positions

Robijn

Last reported at 2014-Nov-25 23:23 UTC. Time now 2014-Nov-27 00:18 UTC.
Position N 50°33' E 000°02'.

Length 90 m; draft 5.4 m.

Type: Cargo ship. MMSI: 245909000.

Date/timePositionNaut miles runAvg speedWind from/ knotsBaromVisibWave heightAir tempDewpointWater temp
2014-Nov-25 23:23N 50°33' E 000°02'7 8.7
2014-Nov-25 22:33N 50°35' E 000°13'9 8.9
2014-Nov-25 21:33N 50°37' E 000°26'1010.2
2014-Nov-25 20:33N 50°42' E 000°41'1312.6
2014-Nov-25 19:33N 50°48' E 000°57'1312.9
2014-Nov-25 18:32N 50°57' E 001°13'1212.3
2014-Nov-25 17:34N 51°05' E 001°28'1010.2
2014-Nov-25 16:33N 51°12' E 001°40'9 8.9
2014-Nov-25 15:33N 51°19' E 001°48'9 8.8
2014-Nov-25 14:33N 51°27' E 001°55'10 9.8
2014-Nov-25 13:33N 51°34' E 002°06'1110.5
2014-Nov-25 12:33N 51°42' E 002°17'6712.2
2014-Nov-25 07:04N 52°33' E 003°26'2010.0
2014-Nov-25 05:04N 52°49' E 003°48'4110.3
2014-Nov-25 01:06N 53°20' E 004°33'611.5
2014-Nov-25 00:32N 53°25' E 004°37'1110.7
2014-Nov-24 23:33N 53°31' E 004°51'1010.4
2014-Nov-24 22:33N 53°35' E 005°08'10 9.6
2014-Nov-24 21:33N 53°38' E 005°23'9 8.8
2014-Nov-24 20:34N 53°41' E 005°37'9 8.5
2014-Nov-24 19:33N 53°43' E 005°51'61 9.4
2014-Nov-24 13:07N 53°59' E 007°30'5 8.9
2014-Nov-24 12:33N 54°01' E 007°38'8 8.4
2014-Nov-24 11:33N 54°02' E 007°53'8 8.4
2014-Nov-24 10:33N 54°01' E 008°07'8 8.3
2014-Nov-24 09:33N 53°60' E 008°21'8 8.2
2014-Nov-24 08:34N 53°58' E 008°34'1211.5
2014-Nov-24 07:34N 53°51' E 008°49'1211.9
2014-Nov-24 06:33N 53°54' E 009°09'2 2.4
2014-Nov-24 05:33N 53°55' E 009°12'7 7.1
2014-Nov-24 04:33N 54°01' E 009°18'7 7.2
2014-Nov-24 03:33N 54°08' E 009°21'9 8.5
2014-Nov-24 02:31N 54°12' E 009°34'7 7.6
2014-Nov-24 01:33N 54°18' E 009°42'7 7.2
2014-Nov-24 00:33N 54°21' E 009°53'8 7.7
2014-Nov-23 23:33N 54°22' E 010°06'2 2.3
2014-Nov-23 22:33N 54°22' E 010°10'4 3.9
2014-Nov-23 21:33N 54°26' E 010°13'1010.3
2014-Nov-23 20:33N 54°32' E 010°27'3711.2
2014-Nov-23 17:12N 54°31' E 011°31'711.4
2014-Nov-23 16:33N 54°28' E 011°43'1111.5
2014-Nov-23 15:33N 54°27' E 012°02'5110.3
2014-Nov-23 10:33N 54°55' E 013°17'1310.1
2014-Nov-23 09:19N 54°59' E 013°37'22 9.8
2014-Nov-23 07:04N 55°10' E 014°11'5 9.9
2014-Nov-23 06:33N 55°14' E 014°17'11 9.9
2014-Nov-23 05:26N 55°23' E 014°28'910.1
2014-Nov-23 04:30N 55°29' E 014°41'1010.2
2014-Nov-23 03:33N 55°34' E 014°55'4410.6
2014-Nov-22 23:21N 55°56' E 016°04'910.8
2014-Nov-22 22:33N 56°00' E 016°17'33510.5
2014-Nov-21 14:32N 59°37' E 024°17'1010.3
2014-Nov-21 13:33N 59°41' E 024°35'1110.3
2014-Nov-21 12:31N 59°44' E 024°56'51 4.6
2014-Nov-21 01:31N 59°32' E 026°33'0 0.0
2014-Nov-21 00:32N 59°32' E 026°33'0 0.0
2014-Nov-20 23:28N 59°32' E 026°33'0 0.0
2014-Nov-20 22:24N 59°32' E 026°33'0 0.0
2014-Nov-20 21:16N 59°32' E 026°33'0 0.0
2014-Nov-20 20:33N 59°32' E 026°33'0 0.0
2014-Nov-20 19:25N 59°32' E 026°33'0 0.0
2014-Nov-20 18:32N 59°32' E 026°33'0 0.0
2014-Nov-20 17:24N 59°32' E 026°33'0 0.0
2014-Nov-20 16:32N 59°32' E 026°33'0 0.0
2014-Nov-20 15:31N 59°32' E 026°33'0 0.0
2014-Nov-20 12:30N 59°32' E 026°33'0 0.0
2014-Nov-20 11:33N 59°32' E 026°33'0 0.0
2014-Nov-20 10:33N 59°32' E 026°33'2 2.0
2014-Nov-20 09:26N 59°34' E 026°31'2 1.7
2014-Nov-20 08:34N 59°35' E 026°29'0 0.0
2014-Nov-20 07:29N 59°35' E 026°29'5 2.1
2014-Nov-20 05:04N 59°40' E 026°27'4 6.9
2014-Nov-20 04:33N 59°42' E 026°22'9 6.9
2014-Nov-20 03:19N 59°47' E 026°08'6 7.0
2014-Nov-20 02:26N 59°50' E 025°58'6 6.2
2014-Nov-20 01:25N 59°51' E 025°45'8 6.8
2014-Nov-20 00:13N 59°50' E 025°29'6 7.0
2014-Nov-19 23:22N 59°48' E 025°17'15 6.5
2014-Nov-19 21:03N 59°45' E 024°48'3 6.5
2014-Nov-19 20:33N 59°45' E 024°42'7 7.4
2014-Nov-19 19:33N 59°43' E 024°27'16 7.4
2014-Nov-19 17:25N 59°38' E 023°58'7 7.5
2014-Nov-19 16:31N 59°36' E 023°45'7 7.6
2014-Nov-19 15:33N 59°33' E 023°32'  
2014-Nov-16 05:26N 57°16' E 017°40'7 8.6
2014-Nov-16 04:33N 57°09' E 017°36'  

Dump ship's entire track history